Time;durP1;ratioP1;P1;durP2;ratioP2;P2;SDS_P1;SDS_P2;PMS_P1;PMS_P2;Temp;Humidity;BMP_temperature;BMP_pressure;BME280_temperature;BME280_humidity;BME280_pressure;Samples;Min_cycle;Max_cycle;Signal;HPM_P1;HPM_P2
2022/08/15 00:01:47;;;;;;;5.03;4.72;;;;;;;22.32;99.12;100247.88;5260348;28;20032;-79
2022/08/15 00:04:18;;;;;;;3.13;2.92;;;;;;;22.56;99.66;100300.06;5259937;28;20052;-80
2022/08/15 00:06:48;;;;;;;3.25;3.08;;;;;;;22.41;100.00;100273.31;5260859;28;20052;-81
2022/08/15 00:09:25;;;;;;;12.77;4.03;;;;;;;22.57;100.00;100296.16;5242487;28;20115;-80
2022/08/15 00:11:57;;;;;;;4.60;3.90;;;;;;;22.52;100.00;100294.47;5242563;28;20020;-80
2022/08/15 00:14:35;;;;;;;4.55;4.22;;;;;;;22.26;100.00;100252.81;5260718;28;20025;-80
2022/08/15 00:17:09;;;;;;;3.50;3.22;;;;;;;22.32;100.00;100267.94;5260695;28;20041;-80
2022/08/15 00:19:47;;;;;;;5.47;4.82;;;;;;;22.56;100.00;100294.56;5242170;28;20031;-81
2022/08/15 00:22:18;;;;;;;5.53;4.78;;;;;;;22.45;100.00;100285.22;5243004;28;20021;-81
2022/08/15 00:24:50;;;;;;;4.13;3.83;;;;;;;22.52;100.00;100299.19;5242626;28;20016;-80
2022/08/15 00:27:24;;;;;;;3.60;3.40;;;;;;;22.16;100.00;100236.84;5243506;28;20088;-81
2022/08/15 00:29:54;;;;;;;4.07;3.78;;;;;;;22.48;100.00;100293.59;5261694;28;20017;-80
2022/08/15 00:32:24;;;;;;;6.43;3.55;;;;;;;22.44;100.00;100297.38;5246245;28;20032;-80
2022/08/15 00:34:55;;;;;;;3.42;3.13;;;;;;;21.98;100.00;100233.53;5263950;28;20031;-80
2022/08/15 00:37:26;;;;;;;3.20;3.00;;;;;;;22.37;100.00;100280.66;5246717;28;20096;-82
2022/08/15 00:39:57;;;;;;;3.65;3.42;;;;;;;21.61;100.00;100175.09;5246960;28;20401;-81
2022/08/15 00:42:27;;;;;;;5.80;4.68;;;;;;;22.23;100.00;100284.56;5253958;28;20043;-80
2022/08/15 00:44:58;;;;;;;3.40;3.20;;;;;;;22.19;100.00;100288.41;5263530;28;20024;-80
2022/08/15 00:47:29;;;;;;;3.63;3.10;;;;;;;22.16;100.00;100291.84;5268629;28;20043;-81
2022/08/15 00:49:59;;;;;;;3.35;3.10;;;;;;;22.11;100.00;100292.88;5278762;22;20020;-57
2022/08/15 00:52:32;;;;;;;3.85;3.65;;;;;;;22.03;100.00;100288.31;5242099;28;20029;-58
2022/08/15 00:55:13;;;;;;;3.65;3.35;;;;;;;22.00;100.00;100288.97;5250246;22;20033;-82
2022/08/15 00:57:46;;;;;;;3.40;3.30;;;;;;;21.99;100.00;100281.06;5220036;28;20022;-81
2022/08/15 01:00:21;;;;;;;2.92;2.83;;;;;;;21.89;100.00;100277.66;5252842;28;20024;-80
2022/08/15 01:02:54;;;;;;;3.35;3.25;;;;;;;21.95;100.00;100285.66;5241974;28;20012;-81
2022/08/15 01:05:25;;;;;;;3.72;3.42;;;;;;;21.79;100.00;100260.81;5251828;28;20048;-81
2022/08/15 01:07:56;;;;;;;3.85;3.47;;;;;;;21.83;100.00;100273.53;5234888;28;20200;-81
2022/08/15 01:10:26;;;;;;;4.38;4.07;;;;;;;21.78;100.00;100272.97;5234644;28;20377;-80
2022/08/15 01:12:57;;;;;;;4.93;4.57;;;;;;;21.77;100.00;100271.38;5250071;28;20075;-79
2022/08/15 01:15:28;;;;;;;4.40;4.15;;;;;;;21.74;100.00;100266.56;5238023;28;20065;-81
2022/08/15 01:17:59;;;;;;;3.75;3.42;;;;;;;21.84;100.00;100277.88;5228078;28;20017;-80
2022/08/15 01:20:32;;;;;;;4.28;3.97;;;;;;;21.84;100.00;100279.84;5228708;28;20083;-80
2022/08/15 01:23:22;;;;;;;4.20;3.95;;;;;;;21.83;100.00;100283.72;5225167;28;20021;-81
2022/08/15 01:26:00;;;;;;;3.70;3.53;;;;;;;21.76;100.00;100269.75;5228487;28;20055;-82
2022/08/15 01:28:37;;;;;;;4.15;3.95;;;;;;;21.81;100.00;100283.28;5249005;28;20024;-81
2022/08/15 01:31:13;;;;;;;4.93;3.85;;;;;;;21.69;100.00;100266.78;5233005;28;20471;-82
2022/08/15 01:33:50;;;;;;;4.03;3.47;;;;;;;21.73;100.00;100270.44;5219206;28;20027;-82
2022/08/15 01:36:23;;;;;;;7.07;4.53;;;;;;;21.72;100.00;100277.09;5221664;28;20025;-81
2022/08/15 01:39:09;;;;;;;3.30;3.20;;;;;;;21.54;100.00;100255.34;5229147;28;20442;-81
2022/08/15 01:41:49;;;;;;;5.53;4.25;;;;;;;21.62;100.00;100277.56;5204131;28;20484;-81
2022/08/15 01:44:58;;;;;;;4.25;3.88;;;;;;;21.59;100.00;100272.75;5223624;28;20025;-80
2022/08/15 01:47:44;;;;;;;4.82;4.40;;;;;;;21.49;100.00;100269.31;5209182;28;20036;-81
2022/08/15 01:50:40;;;;;;;3.80;3.60;;;;;;;21.49;100.00;100269.31;5249157;28;20108;-80
2022/08/15 01:53:35;;;;;;;4.15;3.60;;;;;;;21.42;100.00;100269.09;5257493;28;20035;-81
2022/08/15 01:56:27;;;;;;;5.15;4.63;;;;;;;21.39;100.00;100268.97;5249194;28;20519;-80
2022/08/15 01:59:01;;;;;;;5.22;4.70;;;;;;;21.37;100.00;100271.25;5223694;28;20033;-79
2022/08/15 02:01:57;;;;;;;5.93;4.93;;;;;;;21.23;100.00;100255.13;5252736;28;20025;-82
2022/08/15 02:04:34;;;;;;;3.83;3.50;;;;;;;21.31;100.00;100280.88;5249392;28;20059;-82
2022/08/15 02:07:09;;;;;;;5.20;4.85;;;;;;;21.19;100.00;100260.47;5224608;28;20111;-80
2022/08/15 02:09:41;;;;;;;4.50;4.30;;;;;;;21.15;100.00;100280.69;5253086;28;20036;-82
2022/08/15 02:12:14;;;;;;;4.97;4.50;;;;;;;21.27;100.00;100279.97;5249454;28;20486;-82
2022/08/15 02:14:44;;;;;;;4.60;3.67;;;;;;;21.21;100.00;100268.38;5221112;28;20033;-80
2022/08/15 02:17:16;;;;;;;5.43;4.93;;;;;;;21.14;100.00;100263.41;5234042;28;20430;-80
2022/08/15 02:19:48;;;;;;;9.38;4.30;;;;;;;21.26;100.00;100281.91;5225717;28;20012;-81
2022/08/15 02:22:22;;;;;;;4.05;3.85;;;;;;;21.21;100.00;100271.13;5231228;28;20033;-80
2022/08/15 02:24:55;;;;;;;4.78;4.47;;;;;;;21.25;100.00;100274.81;5241205;28;20028;-81
2022/08/15 02:27:31;;;;;;;4.53;4.22;;;;;;;21.26;100.00;100276.41;5230524;28;20031;-81
2022/08/15 02:30:15;;;;;;;4.28;3.97;;;;;;;21.23;100.00;100279.84;5250092;28;20023;-81
2022/08/15 02:32:47;;;;;;;4.80;4.50;;;;;;;21.24;100.00;100278.69;5253256;28;20048;-81
2022/08/15 02:35:17;;;;;;;4.85;4.47;;;;;;;21.25;100.00;100279.50;5229574;28;20024;-82
2022/08/15 02:37:49;;;;;;;4.78;4.38;;;;;;;21.22;100.00;100272.75;5236553;28;20103;-80
2022/08/15 02:40:19;;;;;;;6.45;4.28;;;;;;;21.25;100.00;100283.03;5247920;28;20100;-80
2022/08/15 02:42:50;;;;;;;4.38;3.75;;;;;;;21.25;100.00;100285.78;5218385;28;20451;-79
2022/08/15 02:45:20;;;;;;;4.55;3.92;;;;;;;21.23;100.00;100277.88;5248373;28;20278;-79
2022/08/15 02:47:51;;;;;;;4.32;4.13;;;;;;;21.31;100.00;100287.19;5223899;28;20020;-79
2022/08/15 02:50:21;;;;;;;8.10;4.05;;;;;;;21.31;100.00;100276.19;5240280;28;20029;-81
2022/08/15 02:52:52;;;;;;;4.03;3.78;;;;;;;21.32;100.00;100280.53;5247512;28;20436;-80
2022/08/15 02:55:22;;;;;;;3.53;3.22;;;;;;;21.23;100.00;100260.59;5217146;28;20029;-80
2022/08/15 02:57:54;;;;;;;6.88;3.90;;;;;;;21.27;100.00;100267.03;5244241;28;20028;-80
2022/08/15 03:00:24;;;;;;;3.38;3.20;;;;;;;21.36;100.00;100273.22;5223901;28;20034;-80
2022/08/15 03:02:59;;;;;;;3.97;3.63;;;;;;;21.28;100.00;100252.16;5214711;28;20482;-81
2022/08/15 03:05:31;;;;;;;4.72;3.78;;;;;;;21.29;100.00;100259.25;5191357;28;20032;-80
2022/08/15 03:08:02;;;;;;;3.58;3.28;;;;;;;21.38;100.00;100268.16;5208618;28;20544;-81
2022/08/15 03:10:34;;;;;;;3.85;3.53;;;;;;;21.37;100.00;100261.06;5208527;28;20395;-81
2022/08/15 03:13:09;;;;;;;4.50;4.20;;;;;;;21.35;100.00;100263.38;5191049;28;20025;-81
2022/08/15 03:15:52;;;;;;;5.05;4.65;;;;;;;21.38;100.00;100283.84;5201711;28;20022;-81
2022/08/15 03:18:25;;;;;;;3.20;3.00;;;;;;;21.39;100.00;100279.94;5226053;28;20021;-82
2022/08/15 03:20:57;;;;;;;5.30;4.03;;;;;;;21.40;100.00;100276.88;5207166;28;20030;-82
2022/08/15 03:23:32;;;;;;;4.05;3.83;;;;;;;21.34;100.00;100272.75;5206961;28;20026;-82
2022/08/15 03:26:03;;;;;;;6.47;5.82;;;;;;;21.34;100.00;100270.00;5223596;28;20026;-82
2022/08/15 03:28:34;;;;;;;3.70;3.50;;;;;;;21.31;100.00;100264.41;5204048;28;20052;-83
2022/08/15 03:31:06;;;;;;;5.95;3.55;;;;;;;21.47;100.00;100281.78;5215872;28;20026;-82
2022/08/15 03:33:38;;;;;;;3.78;3.50;;;;;;;21.49;100.00;100277.56;5196272;28;20053;-82
2022/08/15 03:36:08;;;;;;;5.20;4.80;;;;;;;21.54;100.00;100280.09;5195958;28;20032;-81
2022/08/15 03:38:39;;;;;;;5.88;3.35;;;;;;;21.40;100.00;100254.88;5212041;28;20022;-82
2022/08/15 03:41:09;;;;;;;3.95;3.65;;;;;;;21.42;100.00;100263.59;5211795;28;20063;-80
2022/08/15 03:43:41;;;;;;;6.97;3.58;;;;;;;21.37;100.00;100272.03;5210137;28;20025;-82
2022/08/15 03:46:16;;;;;;;4.57;3.50;;;;;;;21.34;100.00;100271.97;5221632;28;20037;-82
2022/08/15 03:48:50;;;;;;;5.75;5.35;;;;;;;21.32;100.00;100288.78;5224238;28;20014;-82
2022/08/15 03:51:21;;;;;;;5.07;4.78;;;;;;;21.14;100.00;100268.09;5222048;28;20033;-82
2022/08/15 03:53:55;;;;;;;4.93;4.57;;;;;;;21.05;100.00;100265.50;5223502;28;20033;-82
2022/08/15 03:56:29;;;;;;;5.30;4.75;;;;;;;20.90;100.00;100257.88;5224944;28;20040;-82
2022/08/15 03:59:00;;;;;;;5.75;4.43;;;;;;;20.69;100.00;100241.50;5224905;28;20028;-82
2022/08/15 04:01:35;;;;;;;4.53;4.32;;;;;;;20.83;100.00;100266.69;5223423;28;20025;-83
2022/08/15 04:04:05;;;;;;;4.57;4.18;;;;;;;20.71;100.00;100250.19;5204486;28;20068;-82
2022/08/15 04:06:40;;;;;;;9.20;5.53;;;;;;;20.73;100.00;100258.88;5208513;28;20033;-82
2022/08/15 04:09:10;;;;;;;6.45;5.25;;;;;;;20.58;100.00;100245.78;5227365;28;20100;-83
2022/08/15 04:11:41;;;;;;;4.53;4.32;;;;;;;20.66;100.00;100263.31;5227458;28;20036;-83
2022/08/15 04:14:11;;;;;;;5.97;5.50;;;;;;;20.55;100.00;100257.44;5226511;28;20033;-83
2022/08/15 04:16:42;;;;;;;5.20;4.82;;;;;;;20.59;100.00;100276.78;5227851;28;20029;-83
2022/08/15 04:19:15;;;;;;;5.00;4.60;;;;;;;20.45;100.00;100244.16;5227502;28;20026;-83
2022/08/15 04:21:46;;;;;;;5.45;5.05;;;;;;;20.51;100.00;100262.00;5227123;28;20030;-83
2022/08/15 04:24:16;;;;;;;5.40;5.13;;;;;;;20.52;100.00;100271.81;5227130;28;20040;-84
2022/08/15 04:26:47;;;;;;;6.15;5.75;;;;;;;20.50;100.00;100271.38;5228636;28;20033;-84
2022/08/15 04:29:17;;;;;;;4.93;4.55;;;;;;;20.49;100.00;100278.00;5211154;28;20017;-84
2022/08/15 04:31:48;;;;;;;4.53;4.10;;;;;;;20.30;100.00;100250.22;5240338;28;20032;-84
2022/08/15 04:34:18;;;;;;;5.40;4.97;;;;;;;20.16;100.00;100256.78;5246861;28;20059;-84
2022/08/15 04:36:49;;;;;;;5.35;4.22;;;;;;;20.23;100.00;100270.75;5227562;28;20021;-84
2022/08/15 04:39:20;;;;;;;5.72;5.43;;;;;;;20.17;100.00;100258.41;5247025;28;20081;-84
2022/08/15 04:41:51;;;;;;;5.72;5.38;;;;;;;20.13;100.00;100256.66;5231318;28;20020;-83
2022/08/15 04:44:22;;;;;;;25.38;6.05;;;;;;;20.09;100.00;100264.75;5249018;28;20021;-84
2022/08/15 04:46:52;;;;;;;7.55;4.93;;;;;;;20.19;100.00;100286.28;5231497;28;20020;-84
2022/08/15 04:49:22;;;;;;;8.10;5.40;;;;;;;20.26;100.00;100304.91;5248697;28;20025;-84
2022/08/15 04:51:53;;;;;;;6.32;4.70;;;;;;;20.26;100.00;100304.13;5248429;28;20013;-84
2022/08/15 04:54:23;;;;;;;7.32;4.78;;;;;;;20.15;100.00;100287.28;5230808;28;20073;-86
2022/08/15 04:56:54;;;;;;;5.68;5.20;;;;;;;20.14;100.00;100271.97;5206111;28;1283489;-83
2022/08/15 04:59:24;;;;;;;4.97;4.43;;;;;;;20.15;100.00;100290.84;5251134;28;20096;-85
2022/08/15 05:01:55;;;;;;;5.13;4.68;;;;;;;20.13;100.00;100279.41;5250245;28;20024;-84
2022/08/15 05:04:25;;;;;;;5.32;5.03;;;;;;;20.09;100.00;100278.44;5249697;28;20111;-83
2022/08/15 05:06:55;;;;;;;5.28;4.88;;;;;;;20.26;100.00;100304.91;5233346;28;20021;-83
2022/08/15 05:09:26;;;;;;;4.50;4.07;;;;;;;20.09;100.00;100272.97;5250478;28;20032;-83
2022/08/15 05:11:57;;;;;;;4.82;4.18;;;;;;;20.20;100.00;100279.66;5249843;28;20036;-84
2022/08/15 05:14:27;;;;;;;7.13;5.45;;;;;;;20.31;100.00;100296.50;5249895;28;20025;-84
2022/08/15 05:16:57;;;;;;;6.60;5.78;;;;;;;20.21;100.00;100277.72;5247979;28;20120;-84
2022/08/15 05:19:28;;;;;;;5.35;4.85;;;;;;;20.28;100.00;100290.88;5249305;28;20012;-84
2022/08/15 05:21:58;;;;;;;5.47;4.95;;;;;;;20.31;100.00;100298.44;5249205;28;20051;-83
2022/08/15 05:24:29;;;;;;;6.30;4.72;;;;;;;20.25;100.00;100284.13;5245911;28;20035;-83
2022/08/15 05:26:59;;;;;;;6.40;5.65;;;;;;;20.27;100.00;100292.81;5250472;28;20025;-83
2022/08/15 05:29:30;;;;;;;5.47;5.05;;;;;;;20.17;100.00;100277.59;5232794;28;20021;-83
2022/08/15 05:32:01;;;;;;;8.88;5.68;;;;;;;20.45;100.00;100310.00;5250179;28;20036;-82
2022/08/15 05:34:31;;;;;;;5.93;5.50;;;;;;;20.53;100.00;100314.56;5232104;28;20103;-82
2022/08/15 05:37:02;;;;;;;7.60;5.47;;;;;;;20.57;100.00;100318.25;5250142;28;20029;-83
2022/08/15 05:39:33;;;;;;;4.88;4.55;;;;;;;20.58;100.00;100303.41;5232487;28;20028;-83
2022/08/15 05:42:19;;;;;;;5.80;5.30;;;;;;;20.65;100.00;100302.88;5249601;28;20088;-82
2022/08/15 05:44:59;;;;;;;4.32;4.13;;;;;;;20.56;100.00;100286.47;5232039;28;20039;-83
2022/08/15 05:47:37;;;;;;;4.30;3.92;;;;;;;20.60;100.00;100292.09;5240776;28;20127;-83
2022/08/15 05:50:30;;;;;;;5.47;5.18;;;;;;;20.77;100.00;100309.22;5239132;28;20109;-83
2022/08/15 05:53:15;;;;;;;4.78;4.47;;;;;;;20.86;100.00;100306.38;5240842;28;20539;-83
2022/08/15 05:55:54;;;;;;;9.75;4.82;;;;;;;20.89;100.00;100311.19;5223749;28;20037;-84
2022/08/15 05:58:28;;;;;;;;;;;;;;;21.02;100.00;100314.78;5238639;28;20017;-82
2022/08/15 06:01:10;;;;;;;4.90;4.05;;;;;;;20.97;100.00;100288.34;5239628;28;19909;-82
2022/08/15 06:03:50;;;;;;;5.50;4.22;;;;;;;21.09;100.00;100313.06;5243728;28;20036;-82
2022/08/15 06:06:24;;;;;;;4.32;3.92;;;;;;;21.19;100.00;100326.38;5243886;28;20021;-82
2022/08/15 06:09:21;;;;;;;3.50;3.30;;;;;;;21.23;100.00;100321.81;5243883;28;20055;-82
2022/08/15 06:11:55;;;;;;;14.80;3.50;;;;;;;21.33;100.00;100320.59;5226434;28;20028;-82
2022/08/15 06:14:34;;;;;;;5.18;3.67;;;;;;;21.47;100.00;100321.06;5225510;28;20028;-81
2022/08/15 06:17:28;;;;;;;3.92;3.72;;;;;;;21.55;100.00;100325.66;5225144;28;20031;-83
2022/08/15 06:20:03;;;;;;;4.28;3.40;;;;;;;21.73;100.00;100328.16;5243072;28;20025;-82
2022/08/15 06:22:54;;;;;;;4.10;3.75;;;;;;;21.81;100.00;100319.00;5226071;28;20031;-82
2022/08/15 06:25:46;;;;;;;5.03;4.32;;;;;;;21.93;100.00;100327.25;5244908;28;20079;-82
2022/08/15 06:28:34;;;;;;;3.67;3.47;;;;;;;21.99;100.00;100320.34;5246426;28;20033;-82
2022/08/15 06:31:22;;;;;;;4.85;4.50;;;;;;;22.11;100.00;100325.06;5243010;28;20055;-82
2022/08/15 06:34:04;;;;;;;5.53;3.70;;;;;;;22.21;100.00;100325.41;5242373;28;20032;-82
2022/08/15 06:36:59;;;;;;;4.47;4.18;;;;;;;22.16;100.00;100298.16;5224817;28;20096;-82
2022/08/15 06:39:46;;;;;;;4.20;3.90;;;;;;;22.29;100.00;100317.34;5242722;28;20013;-82
2022/08/15 06:42:25;;;;;;;3.33;3.13;;;;;;;22.32;100.00;100313.91;5241295;28;20040;-81
2022/08/15 06:45:01;;;;;;;3.85;3.65;;;;;;;22.08;100.00;100293.56;5223841;28;20021;-81
2022/08/15 06:47:31;;;;;;;5.45;4.95;;;;;;;22.29;100.00;100320.09;5226657;28;20024;-81
2022/08/15 06:50:17;;;;;;;7.43;5.25;;;;;;;22.28;100.00;100305.53;5244753;28;20044;-81
2022/08/15 06:52:52;;;;;;;3.90;3.60;;;;;;;22.50;100.00;100327.06;5242050;28;20025;-80
2022/08/15 06:55:29;;;;;;;4.43;4.13;;;;;;;22.58;100.00;100326.09;5248239;22;20028;-62
2022/08/15 06:58:08;;;;;;;4.82;4.53;;;;;;;22.52;100.00;100315.69;5259348;28;20028;-60
2022/08/15 07:00:48;;;;;;;4.72;4.15;;;;;;;22.61;100.00;100327.34;5246187;28;20605;-60
2022/08/15 07:03:25;;;;;;;5.15;4.85;;;;;;;22.67;100.00;100328.69;5264274;28;20028;-59
2022/08/15 07:05:57;;;;;;;5.07;4.60;;;;;;;22.63;100.00;100327.78;5264477;28;20028;-58
2022/08/15 07:08:40;;;;;;;5.85;5.00;;;;;;;22.53;100.00;100322.78;5263952;28;20383;-59
2022/08/15 07:11:24;;;;;;;5.32;4.97;;;;;;;22.56;100.00;100324.84;5264168;28;20020;-60
2022/08/15 07:14:06;;;;;;;11.23;4.95;;;;;;;22.61;100.00;100332.84;5264957;28;20036;-62
2022/08/15 07:17:00;;;;;;;7.85;4.15;;;;;;;22.64;100.00;100334.91;5264619;28;20031;-60
2022/08/15 07:19:37;;;;;;;5.82;4.00;;;;;;;22.70;100.00;100333.50;5264276;28;20495;-61
2022/08/15 07:22:09;;;;;;;5.78;5.18;;;;;;;22.80;100.00;100333.06;5263819;28;20023;-58
2022/08/15 07:24:52;;;;;;;5.30;5.00;;;;;;;22.80;100.00;100337.75;5263683;28;20102;-60
2022/08/15 07:27:32;;;;;;;4.88;4.53;;;;;;;22.85;100.00;100337.47;5264241;28;20448;-59
2022/08/15 07:30:14;;;;;;;5.40;4.10;;;;;;;22.90;100.00;100343.53;5245723;28;20035;-60
2022/08/15 07:32:45;;;;;;;5.60;5.10;;;;;;;22.95;100.00;100345.25;5245699;28;20529;-60
2022/08/15 07:35:27;;;;;;;6.35;5.18;;;;;;;23.02;100.00;100341.88;5263689;28;20032;-59
2022/08/15 07:38:05;;;;;;;14.32;7.60;;;;;;;23.13;100.00;100341.00;5263852;28;20077;-60
2022/08/15 07:40:41;;;;;;;6.68;4.82;;;;;;;23.22;100.00;100333.38;5262817;28;20047;-59
2022/08/15 07:43:28;;;;;;;5.45;4.85;;;;;;;23.17;100.00;100308.84;5263937;28;20020;-61
2022/08/15 07:46:34;;;;;;;4.97;4.63;;;;;;;23.53;100.00;100338.16;5263605;28;20035;-60
2022/08/15 07:49:16;;;;;;;5.53;5.10;;;;;;;23.64;100.00;100332.91;5262917;28;20339;-60
2022/08/15 07:51:57;;;;;;;4.40;4.20;;;;;;;24.00;100.00;100334.53;5263413;28;20028;-60
2022/08/15 07:54:32;;;;;;;4.15;3.85;;;;;;;24.59;100.00;100311.38;5262633;28;20103;-60
2022/08/15 07:57:05;;;;;;;5.10;4.80;;;;;;;25.11;100.00;100327.44;5262799;28;21745;-61
2022/08/15 07:59:37;;;;;;;5.00;4.60;;;;;;;25.27;100.00;100330.09;5263023;28;20048;-59
2022/08/15 08:02:20;;;;;;;3.70;3.40;;;;;;;25.31;100.00;100328.19;5263321;28;20028;-61
2022/08/15 08:04:50;;;;;;;6.32;4.10;;;;;;;25.32;100.00;100326.22;5262653;28;20521;-60
2022/08/15 08:07:40;;;;;;;5.05;4.60;;;;;;;25.46;100.00;100320.91;5244691;28;20020;-60
2022/08/15 08:10:24;;;;;;;4.97;4.03;;;;;;;25.61;100.00;100321.97;5262649;28;20023;-60
2022/08/15 08:13:00;;;;;;;4.97;4.60;;;;;;;25.64;100.00;100321.25;5262962;28;20020;-60
2022/08/15 08:15:39;;;;;;;7.57;4.90;;;;;;;25.61;100.00;100327.50;5244568;28;20344;-60
2022/08/15 08:18:26;;;;;;;3.50;3.30;;;;;;;25.51;100.00;100338.00;5263127;28;20035;-61
2022/08/15 08:21:04;;;;;;;8.38;3.88;;;;;;;25.51;100.00;100328.91;5263233;28;20511;-60
2022/08/15 08:23:39;;;;;;;6.80;4.95;;;;;;;25.60;100.00;100339.72;5262817;28;20563;-60
2022/08/15 08:26:35;;;;;;;4.25;3.85;;;;;;;25.63;100.00;100337.06;5262750;28;20377;-60
2022/08/15 08:29:38;;;;;;;4.88;4.50;;;;;;;25.75;100.00;100344.34;5262673;28;20203;-62
2022/08/15 08:32:17;;;;;;;6.05;4.07;;;;;;;25.86;100.00;100335.06;5198047;28;20055;-62
2022/08/15 08:35:00;;;;;;;4.47;4.07;;;;;;;25.95;100.00;100339.53;5262402;28;20061;-61
2022/08/15 08:38:00;;;;;;;8.18;4.75;;;;;;;26.02;100.00;100339.59;5264189;28;20032;-61
2022/08/15 08:44:23;;;;;;;7.45;4.65;;;;;;;26.13;100.00;100344.13;5264426;28;20043;-61
2022/08/15 08:47:21;;;;;;;5.47;4.93;;;;;;;26.16;100.00;100348.94;5264428;28;20426;-61
2022/08/15 08:50:13;;;;;;;5.55;5.13;;;;;;;26.15;100.00;100344.56;5245896;28;20046;-65
2022/08/15 08:53:09;;;;;;;3.92;3.60;;;;;;;26.18;100.00;100352.13;5250953;28;20047;-61
2022/08/15 08:56:03;;;;;;;6.00;5.13;;;;;;;26.17;100.00;100342.22;5267609;28;20067;-61
2022/08/15 08:58:42;;;;;;;4.60;4.20;;;;;;;26.04;100.00;100345.56;5268397;28;20073;-60
2022/08/15 09:01:16;;;;;;;6.40;5.75;;;;;;;26.03;100.00;100355.84;5249821;28;20076;-61
2022/08/15 09:03:52;;;;;;;5.65;5.15;;;;;;;25.99;100.00;100354.22;5261041;28;20056;-61
2022/08/15 09:06:26;;;;;;;7.22;6.57;;;;;;;25.97;100.00;100360.13;5229152;28;20036;-61
2022/08/15 09:09:05;;;;;;;5.78;5.35;;;;;;;26.05;100.00;100358.25;5246731;28;20361;-61
2022/08/15 09:11:45;;;;;;;11.02;5.03;;;;;;;26.05;100.00;100361.81;5228787;28;20117;-61
2022/08/15 09:14:17;;;;;;;5.10;4.70;;;;;;;26.14;100.00;100353.25;5246396;28;20450;-61
2022/08/15 09:16:51;;;;;;;6.78;6.07;;;;;;;26.23;100.00;100360.13;5246415;28;20476;-62
2022/08/15 09:19:26;;;;;;;8.13;5.07;;;;;;;26.31;100.00;100361.03;5246495;28;20020;-61
2022/08/15 09:21:56;;;;;;;5.45;4.72;;;;;;;26.43;100.00;100360.00;5246700;28;20050;-61
2022/08/15 09:24:27;;;;;;;7.53;4.82;;;;;;;26.58;100.00;100359.00;5246456;28;20024;-61
2022/08/15 09:27:22;;;;;;;5.80;5.40;;;;;;;26.79;100.00;100369.56;5246386;28;20017;-61
2022/08/15 09:30:01;;;;;;;6.93;5.32;;;;;;;26.87;100.00;100357.38;5246569;28;20073;-61
2022/08/15 09:33:09;;;;;;;3.58;3.38;;;;;;;27.15;100.00;100368.81;5246792;28;20138;-61
2022/08/15 09:36:13;;;;;;;4.75;4.47;;;;;;;27.20;100.00;100367.66;5246726;28;20056;-60
2022/08/15 09:39:07;;;;;;;5.28;4.57;;;;;;;27.16;100.00;100372.38;5246450;28;20048;-60
2022/08/15 09:42:01;;;;;;;6.43;5.32;;;;;;;27.19;100.00;100372.41;5246111;28;20027;-60
2022/08/15 09:45:09;;;;;;;8.75;5.63;;;;;;;27.22;100.00;100365.31;5245563;28;20035;-61
2022/08/15 09:47:49;;;;;;;5.63;5.07;;;;;;;27.11;100.00;100376.31;5228020;28;20025;-60
2022/08/15 09:50:34;;;;;;;7.88;5.28;;;;;;;26.98;100.00;100372.19;5228121;28;20017;-62
2022/08/15 09:53:28;;;;;;;8.80;5.70;;;;;;;26.91;100.00;100372.06;5246671;28;20052;-60
2022/08/15 09:56:06;;;;;;;5.88;5.50;;;;;;;26.90;100.00;100362.16;5245744;28;20036;-59
2022/08/15 09:58:51;;;;;;;5.97;5.22;;;;;;;26.99;100.00;100370.22;5227238;28;20259;-61
2022/08/15 10:01:28;;;;;;;9.48;5.32;;;;;;;27.05;100.00;100368.72;5246148;28;20095;-61
2022/08/15 10:04:03;;;;;;;5.93;5.00;;;;;;;27.15;100.00;100363.25;5240354;28;20265;-61
2022/08/15 10:07:04;;;;;;;9.57;5.57;;;;;;;27.27;100.00;100367.75;5224740;28;20457;-61
2022/08/15 10:09:37;;;;;;;5.05;4.80;;;;;;;27.27;100.00;100364.97;5224684;28;20035;-61
2022/08/15 10:12:07;;;;;;;7.65;5.45;;;;;;;27.17;100.00;100365.66;5207015;28;20256;-61
2022/08/15 10:14:53;;;;;;;8.45;4.63;;;;;;;27.23;100.00;100361.38;5224164;28;20029;-59
2022/08/15 10:17:33;;;;;;;5.05;4.75;;;;;;;27.49;100.00;100358.44;5223907;28;20029;-60
2022/08/15 10:20:15;;;;;;;4.95;4.47;;;;;;;27.73;100.00;100357.09;5224421;28;20046;-61
2022/08/15 10:22:57;;;;;;;4.75;4.35;;;;;;;27.92;100.00;100349.72;5225300;28;20056;-61
2022/08/15 10:25:28;;;;;;;7.72;5.45;;;;;;;28.31;100.00;100356.31;5224626;28;20465;-60
2022/08/15 10:28:01;;;;;;;13.95;4.65;;;;;;;28.66;100.00;100358.47;5225091;28;20029;-61
2022/08/15 10:30:36;;;;;;;4.45;4.10;;;;;;;29.09;100.00;100351.13;5206672;28;20020;-61
2022/08/15 10:33:33;;;;;;;6.43;4.70;;;;;;;29.24;100.00;100355.50;5224622;28;20024;-61
2022/08/15 10:36:13;;;;;;;5.05;4.68;;;;;;;29.43;100.00;100350.81;5203426;28;20480;-60
2022/08/15 10:38:50;;;;;;;5.15;4.68;;;;;;;29.72;100.00;100351.59;5206258;28;20025;-62
2022/08/15 10:41:37;;;;;;;10.60;5.40;;;;;;;29.75;100.00;100348.00;5223620;28;20060;-62
2022/08/15 10:44:13;;;;;;;5.32;4.85;;;;;;;29.61;100.00;100356.38;5223337;28;20108;-60
2022/08/15 10:47:25;;;;;;;5.43;5.13;;;;;;;29.28;100.00;100360.28;5255977;22;20060;-79
2022/08/15 10:50:16;;;;;;;4.40;4.00;;;;;;;29.04;100.00;100345.13;5255351;28;20036;-80
2022/08/15 10:53:13;;;;;;;4.65;4.35;;;;;;;29.20;100.00;100349.13;5257800;28;20094;-80
2022/08/15 10:55:43;;;;;;;6.20;5.70;;;;;;;29.19;100.00;100325.28;5188539;28;20058;-80
2022/08/15 10:58:26;;;;;;;10.18;5.65;;;;;;;29.19;99.96;100325.28;5276611;22;20426;-63
2022/08/15 11:01:20;;;;;;;5.13;4.53;;;;;;;29.42;100.00;100347.22;5215674;28;20032;-64
2022/08/15 11:04:02;;;;;;;5.55;5.20;;;;;;;29.54;98.31;100335.69;5200937;28;20029;-64
2022/08/15 11:06:40;;;;;;;4.18;3.97;;;;;;;29.71;97.63;100333.31;5210353;28;20052;-71
2022/08/15 11:09:18;;;;;;;4.03;3.78;;;;;;;29.77;98.71;100342.84;5227912;28;20025;-66
2022/08/15 11:12:00;;;;;;;5.00;4.68;;;;;;;29.88;96.28;100338.06;5224419;28;20129;-62
2022/08/15 11:14:38;;;;;;;5.43;4.53;;;;;;;29.80;96.54;100333.69;5222312;28;20481;-64
2022/08/15 11:17:18;;;;;;;8.85;4.40;;;;;;;29.73;95.73;100326.16;5223684;28;20028;-64
2022/08/15 11:19:51;;;;;;;5.75;5.25;;;;;;;29.87;95.90;100330.91;5205372;28;20033;-63
2022/08/15 11:22:50;;;;;;;7.18;3.90;;;;;;;29.98;95.05;100320.56;5223528;28;20024;-68
2022/08/15 11:25:33;;;;;;;4.68;4.28;;;;;;;30.01;95.49;100328.13;5219596;28;20037;-63
2022/08/15 11:28:20;;;;;;;6.00;5.32;;;;;;;30.25;94.32;100328.47;5223789;28;20021;-67
2022/08/15 11:31:06;;;;;;;5.65;4.55;;;;;;;30.31;92.66;100329.66;5223715;28;20025;-63
2022/08/15 11:33:46;;;;;;;5.35;5.05;;;;;;;30.18;94.11;100327.28;5222482;28;20033;-64
2022/08/15 11:36:20;;;;;;;4.95;4.38;;;;;;;30.32;93.63;100328.47;5222843;28;20028;-68
2022/08/15 11:38:53;;;;;;;5.30;4.00;;;;;;;30.50;92.43;100340.31;5223288;28;20021;-64
2022/08/15 11:41:36;;;;;;;6.70;3.63;;;;;;;30.59;90.63;100337.13;5205363;28;20056;-64
2022/08/15 11:44:10;;;;;;;7.15;4.72;;;;;;;30.59;88.32;100342.72;5222303;28;20110;-67
2022/08/15 11:46:45;;;;;;;4.63;3.72;;;;;;;30.45;88.02;100335.97;5223111;28;20029;-63
2022/08/15 11:49:30;;;;;;;3.35;3.15;;;;;;;30.22;86.77;100318.94;5223110;28;20059;-62
2022/08/15 11:52:08;;;;;;;3.92;3.72;;;;;;;30.25;88.61;100328.47;5222967;28;20021;-69
2022/08/15 11:54:38;;;;;;;6.53;5.13;;;;;;;30.10;88.63;100324.91;5222751;28;20021;-63
2022/08/15 11:57:19;;;;;;;5.75;4.00;;;;;;;30.07;89.67;100326.50;5223229;28;20029;-64
2022/08/15 12:00:04;;;;;;;3.75;3.45;;;;;;;30.16;88.49;100329.69;5223305;28;20036;-64
2022/08/15 12:02:35;;;;;;;4.32;4.13;;;;;;;30.00;88.93;100332.13;5223070;28;20373;-64
2022/08/15 12:05:15;;;;;;;5.85;4.82;;;;;;;29.76;88.86;100328.13;5222204;28;20087;-70
2022/08/15 12:07:47;;;;;;;5.65;4.03;;;;;;;29.40;89.40;100327.34;5223077;28;20043;-63
2022/08/15 12:10:25;;;;;;;4.43;4.13;;;;;;;29.15;91.72;100327.31;5222973;28;20029;-67